Time;durP1;ratioP1;P1;durP2;ratioP2;P2;SDS_P1;SDS_P2;PMS_P1;PMS_P2;Temp;Humidity;BMP_temperature;BMP_pressure;BME280_temperature;BME280_humidity;BME280_pressure;Samples;Min_cycle;Max_cycle;Signal;HPM_P1;HPM_P2
2021/12/21 00:00:00;;;;;;;22.42;10.57;;;0.20;99.90;;;;;;5076288;28;20523;-59
2021/12/21 00:02:26;;;;;;;20.48;10.70;;;0.10;99.90;;;;;;5077641;28;20044;-58
2021/12/21 00:04:52;;;;;;;22.13;9.90;;;0.20;99.90;;;;;;5077105;28;20431;-58
2021/12/21 00:07:18;;;;;;;18.40;9.05;;;0.20;99.90;;;;;;5080247;28;20036;-58
2021/12/21 00:09:44;;;;;;;22.00;8.75;;;0.20;99.90;;;;;;5081180;28;20048;-58
2021/12/21 00:12:12;;;;;;;18.98;8.77;;;0.10;99.90;;;;;;5063545;28;20040;-58
2021/12/21 00:14:56;;;;;;;17.55;8.57;;;0.10;99.90;;;;;;5079234;28;20092;-58
2021/12/21 00:20:27;;;;;;;19.77;8.85;;;0.10;99.90;;;;;;5081912;28;20072;-58
2021/12/21 00:25:23;;;;;;;22.88;10.02;;;0.10;99.90;;;;;;5081073;28;20056;-58
2021/12/21 00:27:52;;;;;;;19.88;9.45;;;0.00;99.90;;;;;;5080831;28;20049;-58
2021/12/21 00:30:18;;;;;;;16.70;8.55;;;-0.10;99.90;;;;;;5079753;28;20075;-59
2021/12/21 00:32:44;;;;;;;21.13;8.88;;;-0.10;99.90;;;;;;5081437;28;20039;-58
2021/12/21 00:35:10;;;;;;;21.55;9.38;;;-0.10;99.90;;;;;;5080791;28;20080;-58
2021/12/21 00:37:40;;;;;;;17.67;9.25;;;-0.10;99.90;;;;;;5081066;28;20066;-58
2021/12/21 00:40:07;;;;;;;22.27;9.70;;;-0.10;99.90;;;;;;5080485;28;20072;-58
2021/12/21 00:42:33;;;;;;;21.63;10.13;;;-0.10;99.90;;;;;;5080912;28;20101;-58
2021/12/21 00:44:58;;;;;;;21.70;9.05;;;-0.20;99.90;;;;;;5078893;28;20048;-58
2021/12/21 00:47:24;;;;;;;24.13;9.88;;;-0.30;99.90;;;;;;5080752;28;20055;-58
2021/12/21 00:49:58;;;;;;;20.15;8.88;;;-0.30;99.90;;;;;;5081285;28;20079;-58
2021/12/21 00:52:25;;;;;;;16.98;8.88;;;-0.30;99.90;;;;;;5100651;28;20073;-58
2021/12/21 00:54:51;;;;;;;20.70;9.07;;;-0.20;99.90;;;;;;5090165;28;20033;-58
2021/12/21 00:57:17;;;;;;;19.63;8.52;;;-0.20;99.90;;;;;;5080114;28;20110;-58
2021/12/21 00:59:43;;;;;;;16.77;7.85;;;-0.10;99.90;;;;;;5080714;28;20044;-59
2021/12/21 01:02:10;;;;;;;21.38;9.82;;;-0.20;99.90;;;;;;5080325;28;20044;-59
2021/12/21 01:04:41;;;;;;;18.90;8.13;;;-0.20;99.90;;;;;;5080184;28;20048;-58
2021/12/21 01:07:18;;;;;;;18.23;9.05;;;-0.10;99.90;;;;;;5080653;28;20040;-58
2021/12/21 01:15:46;;;;;;;16.10;8.25;;;-0.30;99.90;;;;;;5080389;28;20181;-58
2021/12/21 01:18:11;;;;;;;19.08;8.52;;;-0.30;99.90;;;;;;5078463;28;20048;-58
2021/12/21 01:20:43;;;;;;;15.75;8.73;;;-0.30;99.90;;;;;;5080441;28;20076;-58
2021/12/21 01:26:05;;;;;;;17.88;8.52;;;-0.30;99.90;;;;;;5079917;28;20127;-58
2021/12/21 01:31:45;;;;;;;17.60;8.65;;;-0.20;99.90;;;;;;5079659;28;20447;-58
2021/12/21 01:38:03;;;;;;;19.10;8.00;;;-0.30;99.90;;;;;;5017617;28;20100;-58
2021/12/21 01:40:15;;;;;;;19.13;9.52;;;-0.20;99.90;;;;;;5064914;28;20040;-59
2021/12/21 01:50:37;;;;;;;16.23;8.88;;;-0.30;99.90;;;;;;5086892;28;20788;-59
2021/12/21 01:53:03;;;;;;;19.42;9.80;;;-0.40;99.90;;;;;;5099683;28;20460;-59
2021/12/21 01:55:29;;;;;;;17.05;9.57;;;-0.50;99.90;;;;;;5084128;28;20044;-59
2021/12/21 01:57:55;;;;;;;16.25;9.23;;;-0.40;99.90;;;;;;5079906;28;20578;-59
2021/12/21 02:00:21;;;;;;;20.27;8.70;;;-0.50;99.90;;;;;;5079913;28;20151;-59
2021/12/21 02:02:47;;;;;;;19.95;9.63;;;-0.60;99.90;;;;;;5080095;28;20047;-58
2021/12/21 02:05:13;;;;;;;19.40;9.45;;;-0.40;99.90;;;;;;5079103;28;20056;-58
2021/12/21 02:07:39;;;;;;;22.83;9.93;;;-0.40;99.90;;;;;;5078419;28;20055;-59
2021/12/21 02:10:06;;;;;;;20.40;9.88;;;-0.40;99.90;;;;;;5079221;28;20043;-57
2021/12/21 02:12:32;;;;;;;21.08;10.60;;;-0.50;99.90;;;;;;5079670;28;20080;-57
2021/12/21 02:15:00;;;;;;;19.92;9.77;;;-0.60;99.90;;;;;;5079370;28;20042;-57
2021/12/21 02:20:41;;;;;;;21.92;9.02;;;-0.60;99.90;;;;;;5078379;28;20876;-57
2021/12/21 02:23:22;;;;;;;19.25;8.45;;;-0.50;99.90;;;;;;5078525;28;20049;-57
2021/12/21 02:28:46;;;;;;;21.08;9.40;;;-0.60;99.90;;;;;;5079547;28;20087;-57
2021/12/21 02:31:13;;;;;;;23.50;10.82;;;-0.50;99.90;;;;;;5077024;28;20036;-56
2021/12/21 02:33:39;;;;;;;17.75;9.55;;;-0.60;99.90;;;;;;5079285;28;20044;-57
2021/12/21 02:36:05;;;;;;;22.83;9.35;;;-0.50;99.90;;;;;;5077079;28;20049;-56
2021/12/21 02:38:32;;;;;;;19.85;8.43;;;-0.60;99.90;;;;;;5079182;28;20041;-57
2021/12/21 02:40:58;;;;;;;18.67;9.73;;;-0.50;99.90;;;;;;5079139;28;20486;-57
2021/12/21 02:43:24;;;;;;;21.05;10.48;;;-0.60;99.90;;;;;;5078310;28;20079;-57
2021/12/21 02:45:49;;;;;;;19.50;9.77;;;-0.50;99.90;;;;;;5079217;28;20102;-57
2021/12/21 02:48:15;;;;;;;17.75;9.07;;;-0.60;99.90;;;;;;5078397;28;20071;-57
2021/12/21 02:50:41;;;;;;;21.92;9.82;;;-0.50;99.90;;;;;;5084713;28;20079;-57
2021/12/21 02:53:08;;;;;;;23.50;9.98;;;-0.50;99.90;;;;;;5098271;28;20472;-57
2021/12/21 02:55:35;;;;;;;19.48;9.35;;;-0.50;99.90;;;;;;5082452;28;20096;-58
2021/12/21 02:58:01;;;;;;;18.48;8.77;;;-0.50;99.90;;;;;;5078055;28;20404;-58
2021/12/21 03:00:29;;;;;;;17.92;9.07;;;-0.60;99.90;;;;;;5078233;28;20127;-57
2021/12/21 03:02:55;;;;;;;19.63;9.30;;;-0.60;99.90;;;;;;5077452;28;20068;-58
2021/12/21 03:05:21;;;;;;;15.68;9.43;;;-0.60;99.90;;;;;;5077445;28;20070;-57
2021/12/21 03:10:27;;;;;;;19.45;9.65;;;-0.50;99.90;;;;;;5076074;28;20044;-57
2021/12/21 03:15:28;;;;;;;21.77;8.90;;;-0.60;99.90;;;;;;5076337;28;20048;-57
2021/12/21 03:17:55;;;;;;;18.15;7.93;;;-0.60;99.90;;;;;;5076276;28;20553;-57
2021/12/21 03:20:23;;;;;;;15.18;8.38;;;-0.60;99.90;;;;;;5076897;28;20133;-57
2021/12/21 03:22:50;;;;;;;19.75;9.50;;;-0.60;99.90;;;;;;5076568;28;20050;-58
2021/12/21 03:25:16;;;;;;;15.30;8.63;;;-0.60;99.90;;;;;;5076920;28;20179;-57
2021/12/21 03:27:42;;;;;;;17.70;8.48;;;-0.60;99.90;;;;;;5075672;28;20079;-57
2021/12/21 03:30:12;;;;;;;17.48;9.18;;;-0.60;99.90;;;;;;5077467;28;20044;-57
2021/12/21 03:32:39;;;;;;;15.40;8.40;;;-0.80;99.90;;;;;;5077127;28;20439;-57
2021/12/21 03:35:06;;;;;;;17.00;9.02;;;-0.80;99.90;;;;;;5077463;28;20044;-58
2021/12/21 03:37:32;;;;;;;15.90;8.75;;;-0.70;99.90;;;;;;5077134;28;20072;-57
2021/12/21 03:40:00;;;;;;;17.33;8.57;;;-0.80;99.90;;;;;;5075531;28;20051;-57
2021/12/21 03:42:26;;;;;;;17.17;8.40;;;-0.70;99.90;;;;;;5079598;28;20541;-57
2021/12/21 03:44:53;;;;;;;15.20;8.05;;;-0.80;99.90;;;;;;5080724;28;20048;-57
2021/12/21 03:47:22;;;;;;;20.73;8.30;;;-0.80;99.90;;;;;;5081159;28;20056;-57
2021/12/21 03:49:57;;;;;;;16.38;9.50;;;-0.90;99.90;;;;;;5081250;28;20059;-57
2021/12/21 03:52:25;;;;;;;21.52;9.73;;;-0.90;99.90;;;;;;5060692;28;20076;-57
2021/12/21 03:54:57;;;;;;;15.82;8.45;;;-0.90;99.90;;;;;;5070922;28;20412;-57
2021/12/21 03:57:24;;;;;;;16.40;8.27;;;-1.00;99.90;;;;;;5080732;28;20041;-58
2021/12/21 03:59:50;;;;;;;20.92;8.57;;;-1.00;99.90;;;;;;5080887;28;20032;-58
2021/12/21 04:02:18;;;;;;;17.63;8.13;;;-1.00;99.90;;;;;;5080577;28;20040;-57
2021/12/21 04:04:46;;;;;;;20.25;8.60;;;-1.10;99.90;;;;;;5080579;28;20060;-58
2021/12/21 04:07:11;;;;;;;15.30;7.72;;;-1.00;99.90;;;;;;5080751;28;20041;-57
2021/12/21 04:09:37;;;;;;;18.25;8.50;;;-0.90;99.90;;;;;;5079269;28;20060;-58
2021/12/21 04:12:04;;;;;;;19.30;8.70;;;-0.90;99.90;;;;;;5080341;28;20040;-57
2021/12/21 04:14:31;;;;;;;12.90;8.25;;;-0.80;99.90;;;;;;5079818;28;20055;-57
2021/12/21 04:16:57;;;;;;;16.80;8.43;;;-0.90;99.90;;;;;;5079010;28;20049;-57
2021/12/21 04:19:24;;;;;;;18.38;8.73;;;-0.90;99.90;;;;;;5080321;28;20055;-56
2021/12/21 04:21:50;;;;;;;18.90;8.95;;;-0.90;99.90;;;;;;5080448;28;20040;-56
2021/12/21 04:24:16;;;;;;;17.35;9.00;;;-0.90;99.90;;;;;;5080327;28;20052;-56
2021/12/21 04:26:42;;;;;;;16.73;8.48;;;-0.90;99.90;;;;;;5080087;28;20048;-57
2021/12/21 04:29:08;;;;;;;14.88;7.75;;;-0.90;99.90;;;;;;5080211;28;20056;-57
2021/12/21 04:31:34;;;;;;;15.48;8.70;;;-0.90;99.90;;;;;;5078575;28;20040;-57
2021/12/21 04:34:00;;;;;;;18.10;8.93;;;-0.90;99.90;;;;;;5080027;28;20048;-57
2021/12/21 04:36:27;;;;;;;18.17;9.13;;;-0.90;99.90;;;;;;5080119;28;20506;-57
2021/12/21 04:38:54;;;;;;;14.45;7.43;;;-1.00;99.90;;;;;;5080418;28;20055;-58
2021/12/21 04:41:28;;;;;;;15.70;7.65;;;-1.00;99.90;;;;;;5078518;28;20045;-57
2021/12/21 04:43:58;;;;;;;14.85;8.02;;;-0.90;99.90;;;;;;5079340;28;20055;-58
2021/12/21 04:46:25;;;;;;;15.80;8.23;;;-0.90;99.90;;;;;;5079738;28;20056;-58
2021/12/21 04:48:51;;;;;;;16.67;8.00;;;-0.90;99.90;;;;;;5078340;28;20408;-58
2021/12/21 04:51:17;;;;;;;15.27;7.68;;;-1.00;99.90;;;;;;5092156;28;20077;-57
2021/12/21 04:53:43;;;;;;;16.70;8.13;;;-1.00;99.90;;;;;;5096922;28;20103;-58
2021/12/21 04:56:09;;;;;;;18.10;7.53;;;-1.10;99.90;;;;;;5078404;28;20040;-57
2021/12/21 04:58:35;;;;;;;13.57;7.15;;;-1.10;99.90;;;;;;5078325;28;20142;-58
2021/12/21 05:01:01;;;;;;;19.88;7.93;;;-1.10;99.90;;;;;;5079532;28;20032;-58
2021/12/21 05:03:27;;;;;;;14.77;7.53;;;-1.10;99.90;;;;;;5077932;28;20078;-57
2021/12/21 05:05:53;;;;;;;16.55;7.78;;;-1.20;99.90;;;;;;5077498;28;20064;-56
2021/12/21 05:08:23;;;;;;;15.95;7.47;;;-1.20;99.90;;;;;;5078903;28;20051;-57
2021/12/21 05:10:52;;;;;;;13.48;6.50;;;-1.10;99.90;;;;;;5079306;28;20060;-57
2021/12/21 05:13:21;;;;;;;13.27;7.00;;;-1.10;99.90;;;;;;5077594;28;20059;-58
2021/12/21 05:15:47;;;;;;;14.57;6.82;;;-1.00;99.90;;;;;;5078065;28;20070;-57
2021/12/21 05:18:14;;;;;;;13.88;7.47;;;-1.10;99.90;;;;;;5077464;28;20078;-57
2021/12/21 05:20:40;;;;;;;12.98;6.80;;;-1.10;99.90;;;;;;5078822;28;20048;-57
2021/12/21 05:23:07;;;;;;;13.55;7.03;;;-1.10;99.90;;;;;;5078683;28;20052;-57
2021/12/21 05:25:33;;;;;;;13.00;7.25;;;-1.20;99.90;;;;;;5079085;28;20115;-57
2021/12/21 05:27:59;;;;;;;18.80;7.80;;;-1.10;99.90;;;;;;5078873;28;20054;-57
2021/12/21 05:30:26;;;;;;;14.93;6.82;;;-1.10;99.90;;;;;;5077438;28;20045;-57
2021/12/21 05:32:54;;;;;;;14.73;7.55;;;-1.10;99.90;;;;;;5079009;28;20061;-57
2021/12/21 05:35:20;;;;;;;13.88;7.35;;;-1.10;99.90;;;;;;5078486;28;20051;-57
2021/12/21 05:37:48;;;;;;;16.83;9.10;;;-1.10;99.90;;;;;;5078469;28;20102;-57
2021/12/21 05:40:16;;;;;;;13.75;6.63;;;-1.10;99.90;;;;;;5078227;28;20037;-57
2021/12/21 05:42:44;;;;;;;13.45;7.53;;;-1.10;99.90;;;;;;5078344;28;20123;-57
2021/12/21 05:45:13;;;;;;;15.52;7.50;;;-1.20;99.90;;;;;;5078309;28;20036;-57
2021/12/21 05:47:38;;;;;;;13.82;6.68;;;-1.20;99.90;;;;;;5078417;28;20093;-57
2021/12/21 05:50:11;;;;;;;14.18;7.55;;;-1.30;99.90;;;;;;5080901;28;20119;-58
2021/12/21 05:52:37;;;;;;;15.95;7.60;;;-1.20;99.90;;;;;;5097267;28;20051;-58
2021/12/21 05:55:05;;;;;;;14.65;7.22;;;-1.20;99.90;;;;;;5086070;28;20040;-59
2021/12/21 05:57:31;;;;;;;18.35;8.00;;;-1.20;99.90;;;;;;5077929;28;20519;-58
2021/12/21 05:59:57;;;;;;;14.15;7.10;;;-1.30;99.90;;;;;;5076801;28;20051;-58
2021/12/21 06:02:24;;;;;;;15.23;7.07;;;-1.20;99.90;;;;;;5076724;28;20072;-58
2021/12/21 06:04:50;;;;;;;14.10;7.00;;;-1.10;99.90;;;;;;5077353;28;20112;-57
2021/12/21 06:07:16;;;;;;;12.90;7.22;;;-1.20;99.90;;;;;;5078082;28;20064;-57
2021/12/21 06:09:45;;;;;;;14.13;6.80;;;-1.30;99.90;;;;;;5078062;28;20051;-57
2021/12/21 06:25:38;;;;;;;15.32;7.20;;;-1.40;99.90;;;;;;5077726;28;20084;-57
2021/12/21 06:28:07;;;;;;;14.65;8.40;;;-1.30;99.90;;;;;;5077896;28;20056;-56
2021/12/21 06:30:34;;;;;;;12.60;7.05;;;-1.30;99.90;;;;;;5077846;28;20044;-57
2021/12/21 06:33:00;;;;;;;12.13;6.80;;;-1.30;99.90;;;;;;5059813;28;20049;-57
2021/12/21 06:35:27;;;;;;;14.15;6.95;;;-1.30;99.90;;;;;;5077459;28;20519;-57
2021/12/21 06:37:53;;;;;;;11.98;6.70;;;-1.30;99.90;;;;;;5077433;28;20051;-57
2021/12/21 06:40:19;;;;;;;13.23;7.32;;;-1.30;99.90;;;;;;5077361;28;20096;-56
2021/12/21 06:42:49;;;;;;;13.65;7.45;;;-1.30;99.90;;;;;;5076047;28;20056;-57
2021/12/21 06:45:27;;;;;;;12.55;7.47;;;-1.40;99.90;;;;;;5075846;28;20056;-58
2021/12/21 06:53:23;;;;;;;14.27;7.15;;;-1.40;99.90;;;;;;5097261;28;20527;-57
2021/12/21 06:55:48;;;;;;;13.57;7.28;;;-1.30;99.90;;;;;;5077111;28;20040;-57
2021/12/21 06:58:15;;;;;;;14.40;8.00;;;-1.30;99.90;;;;;;5075949;28;20028;-58
2021/12/21 07:00:42;;;;;;;14.05;8.15;;;-1.40;99.90;;;;;;5076098;28;20056;-57
2021/12/21 07:03:08;;;;;;;15.35;8.27;;;-1.40;99.90;;;;;;5075617;28;20052;-57
2021/12/21 07:05:34;;;;;;;14.68;7.05;;;-1.50;99.90;;;;;;5076390;28;20082;-58
2021/12/21 07:08:00;;;;;;;12.85;7.90;;;-1.50;99.90;;;;;;5076976;28;20041;-58
2021/12/21 07:10:28;;;;;;;13.68;7.95;;;-1.50;99.90;;;;;;5075546;28;20127;-57
2021/12/21 07:18:29;;;;;;;15.45;8.25;;;-1.50;99.90;;;;;;5077136;28;20137;-58
2021/12/21 07:20:56;;;;;;;16.30;8.57;;;-1.60;99.90;;;;;;5077122;28;20052;-58
2021/12/21 07:23:22;;;;;;;16.55;8.75;;;-1.50;99.90;;;;;;5077151;28;20103;-58
2021/12/21 07:25:50;;;;;;;16.65;8.82;;;-1.50;99.90;;;;;;5077042;28;20079;-58
2021/12/21 07:28:16;;;;;;;19.00;9.07;;;-1.40;99.90;;;;;;5077318;28;20052;-58
2021/12/21 07:30:42;;;;;;;16.17;8.63;;;-1.50;99.90;;;;;;5059461;28;20040;-58
2021/12/21 07:33:09;;;;;;;13.48;8.63;;;-1.50;99.90;;;;;;5076120;28;20039;-58
2021/12/21 07:35:35;;;;;;;14.68;8.68;;;-1.60;99.90;;;;;;5076978;28;20036;-59
2021/12/21 07:38:01;;;;;;;14.23;8.43;;;-1.50;99.90;;;;;;5077295;28;20404;-58
2021/12/21 07:40:27;;;;;;;14.80;8.52;;;-1.60;99.90;;;;;;5077143;28;20036;-58
2021/12/21 07:42:52;;;;;;;15.27;8.02;;;-1.60;99.90;;;;;;5076205;28;20055;-59
2021/12/21 07:45:18;;;;;;;14.85;8.68;;;-1.50;99.90;;;;;;5077238;28;20106;-58
2021/12/21 07:47:45;;;;;;;14.88;9.50;;;-1.60;99.90;;;;;;5059333;28;20122;-59
2021/12/21 07:50:11;;;;;;;17.73;9.93;;;-1.60;99.90;;;;;;5078166;28;20044;-58
2021/12/21 07:52:37;;;;;;;13.82;8.43;;;-1.50;99.90;;;;;;5093686;28;20063;-59
2021/12/21 07:55:04;;;;;;;17.85;8.73;;;-1.50;99.90;;;;;;5083020;28;20105;-57
2021/12/21 07:57:31;;;;;;;16.00;8.77;;;-1.40;99.90;;;;;;5073535;28;20052;-59
2021/12/21 07:59:58;;;;;;;15.73;9.13;;;-1.40;99.90;;;;;;5056060;28;20060;-58
2021/12/21 08:02:26;;;;;;;18.88;9.38;;;-1.40;99.90;;;;;;5073578;28;20044;-59
2021/12/21 08:04:53;;;;;;;18.77;10.10;;;-1.30;99.90;;;;;;5073600;28;20108;-59
2021/12/21 08:07:23;;;;;;;16.25;8.68;;;-1.30;99.90;;;;;;5073712;28;20045;-58
2021/12/21 08:09:52;;;;;;;16.60;9.48;;;-1.30;99.90;;;;;;5073675;28;20050;-58
2021/12/21 08:12:19;;;;;;;15.20;9.35;;;-1.30;99.90;;;;;;5073513;28;20083;-59
2021/12/21 08:14:51;;;;;;;16.70;10.50;;;-1.30;99.90;;;;;;5072738;28;20060;-58
2021/12/21 08:17:18;;;;;;;17.50;10.07;;;-1.40;99.90;;;;;;5073907;28;20074;-58
2021/12/21 08:19:46;;;;;;;16.42;9.50;;;-1.30;99.90;;;;;;5072535;28;20658;-59
2021/12/21 08:22:12;;;;;;;22.63;10.73;;;-1.40;99.90;;;;;;5072067;28;20551;-59
2021/12/21 08:24:39;;;;;;;16.98;10.48;;;-1.30;99.90;;;;;;5073422;28;20105;-58
2021/12/21 08:27:05;;;;;;;17.15;10.10;;;-1.20;99.90;;;;;;5073134;28;20075;-58
2021/12/21 08:29:31;;;;;;;19.13;10.82;;;-1.10;99.90;;;;;;5075394;28;20052;-58
2021/12/21 08:31:57;;;;;;;19.33;10.18;;;-1.10;99.90;;;;;;5076831;28;20052;-59
2021/12/21 08:34:23;;;;;;;19.75;10.25;;;-1.10;99.90;;;;;;5075698;28;20074;-59
2021/12/21 08:36:50;;;;;;;19.88;10.43;;;-1.10;99.90;;;;;;5076769;28;20681;-59
2021/12/21 08:39:17;;;;;;;18.63;10.40;;;-1.10;99.90;;;;;;5076454;28;20044;-59
2021/12/21 08:41:45;;;;;;;19.40;10.52;;;-1.00;99.90;;;;;;5077204;28;20072;-59
2021/12/21 08:44:11;;;;;;;19.90;11.63;;;-1.10;99.90;;;;;;5077740;28;20098;-59
2021/12/21 08:46:40;;;;;;;20.17;10.93;;;-1.00;99.90;;;;;;5078677;28;20107;-57
2021/12/21 08:49:06;;;;;;;21.48;11.48;;;-1.00;99.90;;;;;;5061258;28;20090;-59
2021/12/21 08:51:32;;;;;;;17.38;10.98;;;-1.00;99.90;;;;;;5094081;28;20050;-58
2021/12/21 08:53:58;;;;;;;19.50;10.50;;;-1.00;99.90;;;;;;5098124;28;20157;-58
2021/12/21 08:56:24;;;;;;;18.35;10.55;;;-1.00;99.90;;;;;;5079729;28;20040;-58
2021/12/21 08:58:50;;;;;;;22.20;10.77;;;-0.80;99.90;;;;;;5078430;28;20036;-57
2021/12/21 09:01:17;;;;;;;23.15;11.30;;;-0.80;99.90;;;;;;5079650;28;20040;-58
2021/12/21 09:03:44;;;;;;;19.67;10.52;;;-0.70;99.90;;;;;;5079468;28;20401;-58
2021/12/21 09:06:10;;;;;;;19.63;10.73;;;-0.70;99.90;;;;;;5078493;28;20064;-59
2021/12/21 09:08:36;;;;;;;20.45;11.50;;;-0.70;99.90;;;;;;5078342;28;20044;-56
2021/12/21 09:11:05;;;;;;;18.48;11.38;;;-0.60;99.90;;;;;;5079441;28;20052;-60
2021/12/21 09:13:32;;;;;;;24.13;11.95;;;-0.60;99.90;;;;;;5079209;28;20090;-57
2021/12/21 09:15:58;;;;;;;20.15;11.38;;;-0.60;99.90;;;;;;5079326;28;20052;-57
2021/12/21 09:18:24;;;;;;;18.27;10.90;;;-0.50;99.90;;;;;;5079215;28;20036;-59
2021/12/21 09:20:50;;;;;;;18.35;10.50;;;-0.40;99.90;;;;;;5079073;28;20052;-58
2021/12/21 09:23:17;;;;;;;17.17;10.55;;;-0.40;99.90;;;;;;5079130;28;20055;-58
2021/12/21 09:25:43;;;;;;;20.23;10.32;;;-0.30;99.90;;;;;;5079312;28;20044;-58
2021/12/21 09:28:09;;;;;;;18.88;10.38;;;-0.30;99.90;;;;;;5079116;28;20100;-58
2021/12/21 09:30:36;;;;;;;22.35;11.07;;;-0.20;99.90;;;;;;5077953;28;20397;-57
2021/12/21 09:33:02;;;;;;;20.38;10.55;;;-0.30;99.90;;;;;;5079249;28;20047;-58
2021/12/21 09:35:28;;;;;;;26.13;12.77;;;-0.30;99.90;;;;;;5077510;28;20037;-57
2021/12/21 09:37:55;;;;;;;19.70;10.30;;;-0.30;99.90;;;;;;5078474;28;20060;-59
2021/12/21 09:40:25;;;;;;;20.08;8.77;;;-0.20;99.90;;;;;;5076389;28;20037;-60
2021/12/21 09:42:51;;;;;;;18.90;10.00;;;-0.10;99.90;;;;;;5078748;28;20127;-57
2021/12/21 09:45:18;;;;;;;16.90;10.63;;;-0.10;99.90;;;;;;5076737;28;20048;-58
2021/12/21 09:47:44;;;;;;;17.67;9.25;;;-0.10;99.90;;;;;;5068273;28;20071;-58
2021/12/21 09:50:14;;;;;;;17.02;8.77;;;0.00;99.90;;;;;;5097095;28;20039;-57
2021/12/21 09:52:40;;;;;;;17.98;8.90;;;0.10;99.90;;;;;;5087118;28;20051;-58
2021/12/21 09:55:09;;;;;;;19.73;10.13;;;0.10;99.90;;;;;;5078399;28;20106;-59
2021/12/21 09:57:36;;;;;;;21.50;10.00;;;0.20;99.90;;;;;;5078019;28;20051;-58
2021/12/21 10:00:05;;;;;;;19.63;9.77;;;0.20;99.90;;;;;;5078272;28;20037;-58
2021/12/21 10:02:34;;;;;;;17.10;9.68;;;0.20;99.90;;;;;;5078453;28;20052;-58
2021/12/21 10:05:06;;;;;;;20.92;9.00;;;0.20;99.90;;;;;;5078154;28;20417;-57
2021/12/21 10:07:33;;;;;;;21.67;9.77;;;0.20;99.90;;;;;;5077476;28;20109;-58
2021/12/21 10:10:17;;;;;;;20.48;9.95;;;0.30;99.90;;;;;;5077901;28;20132;-59
2021/12/21 10:12:46;;;;;;;23.13;11.00;;;0.40;99.90;;;;;;5077971;28;20044;-59
2021/12/21 10:15:16;;;;;;;19.65;9.75;;;0.50;99.90;;;;;;5080480;28;20032;-56
2021/12/21 10:17:57;;;;;;;19.60;9.82;;;0.50;99.90;;;;;;5088389;28;20083;-55
2021/12/21 10:20:36;;;;;;;17.77;8.90;;;0.50;99.90;;;;;;5096150;28;20126;-59
2021/12/21 10:23:14;;;;;;;17.65;9.05;;;0.60;99.90;;;;;;5098106;28;20039;-59
2021/12/21 10:25:50;;;;;;;17.52;8.77;;;0.60;99.90;;;;;;5098388;28;20797;-57
2021/12/21 10:28:39;;;;;;;18.15;8.70;;;0.70;99.90;;;;;;5098264;28;20044;-58
2021/12/21 10:31:08;;;;;;;20.42;8.05;;;0.70;99.90;;;;;;5098260;28;20043;-59
2021/12/21 10:33:36;;;;;;;16.55;9.07;;;0.80;99.90;;;;;;5098058;28;20056;-57
2021/12/21 10:36:08;;;;;;;20.02;9.55;;;0.80;99.90;;;;;;5097828;28;20043;-58
2021/12/21 10:38:37;;;;;;;15.57;8.10;;;0.80;99.90;;;;;;5098201;28;20056;-58
2021/12/21 10:41:11;;;;;;;16.55;8.38;;;0.90;99.90;;;;;;5097756;28;20095;-57
2021/12/21 10:43:37;;;;;;;18.85;8.77;;;1.00;99.90;;;;;;5097503;28;20392;-57
2021/12/21 10:46:03;;;;;;;18.80;9.40;;;1.00;99.90;;;;;;5097180;28;20474;-57
2021/12/21 10:48:29;;;;;;;18.90;9.07;;;1.10;99.90;;;;;;5097126;28;20040;-57
2021/12/21 10:50:56;;;;;;;16.45;8.70;;;1.10;99.90;;;;;;5087861;28;20404;-56
2021/12/21 10:53:26;;;;;;;18.27;9.07;;;1.20;99.90;;;;;;5077526;28;20389;-56
2021/12/21 10:56:06;;;;;;;18.70;9.00;;;1.20;99.90;;;;;;5077835;28;20053;-58
2021/12/21 10:58:40;;;;;;;15.95;8.60;;;1.20;99.90;;;;;;5077542;28;20137;-59
2021/12/21 11:01:15;;;;;;;20.65;8.75;;;1.30;99.90;;;;;;5075763;28;20073;-58
2021/12/21 11:03:55;;;;;;;17.55;8.68;;;1.40;99.90;;;;;;5077226;28;20041;-59
2021/12/21 11:06:24;;;;;;;16.77;8.25;;;1.40;99.90;;;;;;5076812;28;20048;-59
2021/12/21 11:08:54;;;;;;;14.00;7.85;;;1.50;99.90;;;;;;5076974;28;20044;-58
2021/12/21 11:11:37;;;;;;;20.90;8.30;;;1.60;99.90;;;;;;5076617;28;20044;-58
2021/12/21 11:14:03;;;;;;;17.50;7.68;;;1.60;99.90;;;;;;5075127;28;20455;-59
2021/12/21 11:16:35;;;;;;;19.17;8.07;;;1.70;99.90;;;;;;5076403;28;20037;-58
2021/12/21 11:19:01;;;;;;;14.13;7.65;;;1.80;99.90;;;;;;5076711;28;20538;-59
2021/12/21 11:21:28;;;;;;;15.05;7.75;;;1.80;99.90;;;;;;5076784;28;20100;-58
2021/12/21 11:23:54;;;;;;;15.52;8.18;;;1.90;99.90;;;;;;5076826;28;20122;-58
2021/12/21 11:26:22;;;;;;;14.38;8.23;;;1.90;99.90;;;;;;5076720;28;20174;-59
2021/12/21 11:28:49;;;;;;;19.45;10.50;;;2.00;99.90;;;;;;5075259;28;20443;-58
2021/12/21 11:31:17;;;;;;;19.27;9.60;;;2.00;99.90;;;;;;5076527;28;20052;-57
2021/12/21 11:33:46;;;;;;;14.05;8.45;;;2.10;99.90;;;;;;5076490;28;20048;-58
2021/12/21 11:39:03;;;;;;;18.55;9.43;;;2.20;99.90;;;;;;5077033;28;20119;-58
2021/12/21 11:41:29;;;;;;;20.90;9.63;;;2.20;99.90;;;;;;5076934;28;20045;-58
2021/12/21 11:44:25;;;;;;;20.38;9.75;;;2.20;99.90;;;;;;5075145;28;20045;-58
2021/12/21 11:46:59;;;;;;;19.08;9.25;;;2.30;99.90;;;;;;5076828;28;20124;-57
2021/12/21 11:49:33;;;;;;;20.23;10.43;;;2.40;99.90;;;;;;5075252;28;20055;-56
2021/12/21 11:52:13;;;;;;;15.38;8.32;;;2.40;99.90;;;;;;5095005;28;20048;-57
2021/12/21 11:55:04;;;;;;;20.60;9.02;;;2.30;99.90;;;;;;5088365;28;20064;-56
2021/12/21 11:57:52;;;;;;;16.52;7.85;;;2.40;99.90;;;;;;5076229;28;20141;-56
2021/12/21 12:00:27;;;;;;;17.83;8.07;;;2.40;99.90;;;;;;5076658;28;20048;-57
2021/12/21 12:02:55;;;;;;;16.35;7.28;;;2.40;99.90;;;;;;5078354;28;20045;-57
2021/12/21 12:05:29;;;;;;;17.77;8.10;;;2.40;99.90;;;;;;5080428;28;20048;-57
2021/12/21 12:08:12;;;;;;;14.50;7.13;;;2.40;99.90;;;;;;5080103;28;20052;-58
2021/12/21 12:10:49;;;;;;;19.55;8.27;;;2.40;99.90;;;;;;5080271;28;20112;-57
2021/12/21 12:13:18;;;;;;;16.55;8.32;;;2.40;99.90;;;;;;5079656;28;20040;-58
2021/12/21 12:15:53;;;;;;;17.45;7.95;;;2.40;99.90;;;;;;5080193;28;20049;-57
2021/12/21 12:18:21;;;;;;;13.63;7.50;;;2.40;99.90;;;;;;5074958;28;20063;-58
2021/12/21 12:20:48;;;;;;;13.88;6.88;;;2.40;99.90;;;;;;5071342;28;20047;-60
2021/12/21 12:23:16;;;;;;;14.85;7.30;;;2.40;99.90;;;;;;5072054;28;20048;-59
2021/12/21 12:25:50;;;;;;;12.77;6.70;;;2.50;99.90;;;;;;5072279;28;20057;-61
2021/12/21 12:28:31;;;;;;;14.75;7.28;;;2.50;99.90;;;;;;5070640;28;20059;-59
2021/12/21 12:30:57;;;;;;;16.23;8.02;;;2.50;99.90;;;;;;5072020;28;20079;-59
2021/12/21 12:33:23;;;;;;;13.75;6.75;;;2.50;99.90;;;;;;5071927;28;20101;-59
2021/12/21 12:35:49;;;;;;;13.27;6.65;;;2.60;99.90;;;;;;5071702;28;20064;-60
2021/12/21 12:38:21;;;;;;;14.18;6.38;;;2.50;99.90;;;;;;5071794;28;20078;-61
2021/12/21 12:41:02;;;;;;;14.80;6.55;;;2.60;99.90;;;;;;5071768;28;20048;-62
2021/12/21 12:43:30;;;;;;;11.27;6.43;;;2.60;99.90;;;;;;5071580;28;20083;-63
2021/12/21 12:46:06;;;;;;;14.57;6.72;;;2.60;99.90;;;;;;5072200;28;20056;-59
2021/12/21 12:48:42;;;;;;;16.92;7.60;;;2.60;99.90;;;;;;5071384;28;20044;-59
2021/12/21 12:51:27;;;;;;;12.85;6.78;;;2.70;99.90;;;;;;5071402;28;21020;-59
2021/12/21 12:53:53;;;;;;;16.73;7.32;;;2.70;99.90;;;;;;5071814;28;20048;-59
2021/12/21 12:56:19;;;;;;;39.03;27.55;;;2.70;99.90;;;;;;5071768;28;20036;-59
2021/12/21 12:58:52;;;;;;;19.42;10.65;;;2.80;99.90;;;;;;5072293;28;20074;-59
2021/12/21 13:01:22;;;;;;;18.75;9.45;;;2.70;99.90;;;;;;5072709;28;20044;-59
2021/12/21 13:03:50;;;;;;;19.05;9.57;;;2.80;99.90;;;;;;5072006;28;20895;-59
2021/12/21 13:06:18;;;;;;;25.35;12.52;;;2.80;99.90;;;;;;5071016;28;20157;-59
2021/12/21 13:08:45;;;;;;;23.88;12.75;;;2.80;99.90;;;;;;5071549;28;20508;-59
2021/12/21 13:11:13;;;;;;;38.75;20.13;;;2.90;99.90;;;;;;5071636;28;20044;-59
2021/12/21 13:13:45;;;;;;;22.08;11.73;;;2.90;99.90;;;;;;5071516;28;20405;-59
2021/12/21 13:16:18;;;;;;;18.65;9.40;;;2.90;99.90;;;;;;5070579;28;20047;-59
2021/12/21 13:18:48;;;;;;;16.30;8.23;;;2.90;99.90;;;;;;5072113;28;20041;-59
2021/12/21 13:21:22;;;;;;;12.80;7.65;;;3.00;99.90;;;;;;5072361;28;20044;-59
2021/12/21 13:23:58;;;;;;;13.70;8.00;;;3.00;99.90;;;;;;5070870;28;20056;-60
2021/12/21 13:27:03;;;;;;;19.70;9.38;;;3.00;99.90;;;;;;5071035;28;20041;-59
2021/12/21 13:29:32;;;;;;;15.25;7.10;;;3.00;99.90;;;;;;5048502;28;20588;-59
2021/12/21 13:32:08;;;;;;;14.57;6.95;;;3.00;99.90;;;;;;5071867;28;20041;-59
2021/12/21 13:34:35;;;;;;;13.02;6.55;;;3.10;99.90;;;;;;5071619;28;20149;-59
2021/12/21 13:37:06;;;;;;;18.27;8.35;;;3.10;99.90;;;;;;5071468;28;20040;-59
2021/12/21 13:39:44;;;;;;;21.15;9.10;;;3.10;99.90;;;;;;5071169;28;20044;-59
2021/12/21 13:42:16;;;;;;;20.45;9.90;;;3.00;99.90;;;;;;5071199;28;20080;-59
2021/12/21 13:44:52;;;;;;;;;;;3.00;99.90;;;;;;5071070;28;20647;-59
2021/12/21 13:47:20;;;;;;;18.90;9.95;;;3.00;99.90;;;;;;5071252;28;19979;-59
2021/12/21 13:49:56;;;;;;;21.27;9.40;;;2.90;99.90;;;;;;5069990;28;20052;-59
2021/12/21 13:52:24;;;;;;;17.35;7.60;;;3.00;99.90;;;;;;5070825;28;20063;-59